sensor_id;sensor_type;location;lat;lon;timestamp;pressure;altitude;pressure_sealevel;temperature;humidity
28027;BME280;15344;52.342;-1.290;2023-02-12T00:01:07;102341.06;;;14.62;58.33
28027;BME280;15344;52.342;-1.290;2023-02-12T00:03:29;102346.80;;;15.09;59.27
28027;BME280;15344;52.342;-1.290;2023-02-12T00:06:00;102346.87;;;14.78;59.54
28027;BME280;15344;52.342;-1.290;2023-02-12T00:08:21;102342.23;;;15.12;59.16
28027;BME280;15344;52.342;-1.290;2023-02-12T00:10:46;102343.00;;;14.76;60.21
28027;BME280;15344;52.342;-1.290;2023-02-12T00:13:12;102346.92;;;15.04;58.86
28027;BME280;15344;52.342;-1.290;2023-02-12T00:15:38;102345.60;;;14.59;60.10
28027;BME280;15344;52.342;-1.290;2023-02-12T00:18:02;102344.70;;;14.97;59.47
28027;BME280;15344;52.342;-1.290;2023-02-12T00:20:27;102345.83;;;15.12;59.90
28027;BME280;15344;52.342;-1.290;2023-02-12T00:22:53;102342.81;;;14.87;61.03
28027;BME280;15344;52.342;-1.290;2023-02-12T00:25:19;102338.84;;;15.12;60.27
28027;BME280;15344;52.342;-1.290;2023-02-12T00:27:44;102341.58;;;15.03;59.01
28027;BME280;15344;52.342;-1.290;2023-02-12T00:30:10;102340.56;;;15.10;58.76
28027;BME280;15344;52.342;-1.290;2023-02-12T00:32:35;102331.96;;;15.01;59.44
28027;BME280;15344;52.342;-1.290;2023-02-12T00:35:01;102329.77;;;14.48;60.60
28027;BME280;15344;52.342;-1.290;2023-02-12T00:37:26;102336.36;;;14.82;60.31
28027;BME280;15344;52.342;-1.290;2023-02-12T00:39:52;102334.70;;;14.91;60.75
28027;BME280;15344;52.342;-1.290;2023-02-12T00:42:17;102335.13;;;15.28;58.26
28027;BME280;15344;52.342;-1.290;2023-02-12T00:44:43;102336.26;;;14.85;58.96
28027;BME280;15344;52.342;-1.290;2023-02-12T00:47:09;102338.46;;;14.96;59.79
28027;BME280;15344;52.342;-1.290;2023-02-12T00:49:33;102339.28;;;14.90;59.37
28027;BME280;15344;52.342;-1.290;2023-02-12T00:51:59;102338.24;;;14.65;60.87
28027;BME280;15344;52.342;-1.290;2023-02-12T00:54:24;102340.00;;;14.97;59.78
28027;BME280;15344;52.342;-1.290;2023-02-12T00:56:49;102345.05;;;14.77;61.23
28027;BME280;15344;52.342;-1.290;2023-02-12T00:59:15;102344.63;;;14.76;59.61
28027;BME280;15344;52.342;-1.290;2023-02-12T01:01:40;102345.67;;;14.86;58.44
28027;BME280;15344;52.342;-1.290;2023-02-12T01:04:05;102347.78;;;14.68;58.92
28027;BME280;15344;52.342;-1.290;2023-02-12T01:06:31;102352.40;;;14.59;58.92
28027;BME280;15344;52.342;-1.290;2023-02-12T01:08:56;102350.27;;;14.88;56.74
28027;BME280;15344;52.342;-1.290;2023-02-12T01:11:23;102350.93;;;14.92;56.77
28027;BME280;15344;52.342;-1.290;2023-02-12T01:13:47;102353.94;;;14.57;58.78
28027;BME280;15344;52.342;-1.290;2023-02-12T01:16:15;102350.42;;;14.89;58.48
28027;BME280;15344;52.342;-1.290;2023-02-12T01:18:38;102354.01;;;15.01;55.95
28027;BME280;15344;52.342;-1.290;2023-02-12T01:21:09;102362.01;;;14.68;58.75
28027;BME280;15344;52.342;-1.290;2023-02-12T01:23:29;102362.05;;;14.85;58.06
28027;BME280;15344;52.342;-1.290;2023-02-12T01:25:57;102357.12;;;14.89;57.91
28027;BME280;15344;52.342;-1.290;2023-02-12T01:28:20;102354.93;;;14.84;58.66
28027;BME280;15344;52.342;-1.290;2023-02-12T01:30:46;102356.41;;;14.73;58.93
28027;BME280;15344;52.342;-1.290;2023-02-12T01:33:11;102362.74;;;14.84;59.81
28027;BME280;15344;52.342;-1.290;2023-02-12T01:35:37;102355.20;;;14.81;58.54
28027;BME280;15344;52.342;-1.290;2023-02-12T01:38:02;102351.54;;;14.12;58.76
28027;BME280;15344;52.342;-1.290;2023-02-12T01:40:29;102345.54;;;14.78;58.93
28027;BME280;15344;52.342;-1.290;2023-02-12T01:42:53;102345.83;;;14.10;60.48
28027;BME280;15344;52.342;-1.290;2023-02-12T01:47:44;102341.19;;;15.06;57.15
28027;BME280;15344;52.342;-1.290;2023-02-12T01:50:12;102340.24;;;14.59;57.08
28027;BME280;15344;52.342;-1.290;2023-02-12T01:52:35;102334.62;;;14.77;58.44
28027;BME280;15344;52.342;-1.290;2023-02-12T01:55:03;102333.52;;;14.76;59.31
28027;BME280;15344;52.342;-1.290;2023-02-12T01:57:26;102333.07;;;14.51;61.00
28027;BME280;15344;52.342;-1.290;2023-02-12T01:59:54;102329.16;;;14.51;60.83
28027;BME280;15344;52.342;-1.290;2023-02-12T02:02:15;102328.85;;;14.46;61.43
28027;BME280;15344;52.342;-1.290;2023-02-12T02:04:45;102324.88;;;14.62;59.51
28027;BME280;15344;52.342;-1.290;2023-02-12T02:07:08;102318.44;;;14.54;60.34
28027;BME280;15344;52.342;-1.290;2023-02-12T02:09:34;102323.33;;;14.84;59.87
28027;BME280;15344;52.342;-1.290;2023-02-12T02:11:57;102321.31;;;14.81;60.04
28027;BME280;15344;52.342;-1.290;2023-02-12T02:14:23;102328.26;;;14.95;58.37
28027;BME280;15344;52.342;-1.290;2023-02-12T02:16:56;102329.88;;;14.57;58.86
28027;BME280;15344;52.342;-1.290;2023-02-12T02:19:23;102330.60;;;14.77;57.74
28027;BME280;15344;52.342;-1.290;2023-02-12T02:21:54;102334.89;;;14.45;59.12
28027;BME280;15344;52.342;-1.290;2023-02-12T02:24:17;102332.08;;;14.88;57.55
28027;BME280;15344;52.342;-1.290;2023-02-12T02:26:43;102336.01;;;14.77;58.19
28027;BME280;15344;52.342;-1.290;2023-02-12T02:29:10;102330.34;;;14.85;58.85
28027;BME280;15344;52.342;-1.290;2023-02-12T02:31:27;102328.31;;;14.67;58.39
28027;BME280;15344;52.342;-1.290;2023-02-12T02:33:52;102329.10;;;14.77;59.29
28027;BME280;15344;52.342;-1.290;2023-02-12T02:36:18;102330.91;;;14.62;59.02
28027;BME280;15344;52.342;-1.290;2023-02-12T02:38:40;102330.80;;;14.66;59.65
28027;BME280;15344;52.342;-1.290;2023-02-12T02:41:04;102335.39;;;14.84;57.79
28027;BME280;15344;52.342;-1.290;2023-02-12T02:43:28;102331.89;;;14.45;60.24
28027;BME280;15344;52.342;-1.290;2023-02-12T02:45:55;102327.65;;;14.54;59.89
28027;BME280;15344;52.342;-1.290;2023-02-12T02:48:18;102329.11;;;14.57;60.17
28027;BME280;15344;52.342;-1.290;2023-02-12T02:50:45;102324.28;;;14.71;60.52
28027;BME280;15344;52.342;-1.290;2023-02-12T02:53:12;102324.05;;;14.46;61.44
28027;BME280;15344;52.342;-1.290;2023-02-12T02:55:37;102326.52;;;14.33;58.31
28027;BME280;15344;52.342;-1.290;2023-02-12T02:58:03;102331.03;;;14.90;57.07
28027;BME280;15344;52.342;-1.290;2023-02-12T03:00:30;102326.27;;;14.73;57.24
28027;BME280;15344;52.342;-1.290;2023-02-12T03:02:52;102322.49;;;14.59;57.33
28027;BME280;15344;52.342;-1.290;2023-02-12T03:05:18;102320.17;;;14.54;56.39
28027;BME280;15344;52.342;-1.290;2023-02-12T03:07:43;102329.79;;;14.30;56.74
28027;BME280;15344;52.342;-1.290;2023-02-12T03:10:09;102331.60;;;14.08;59.18
28027;BME280;15344;52.342;-1.290;2023-02-12T03:12:34;102321.42;;;14.53;58.26
28027;BME280;15344;52.342;-1.290;2023-02-12T03:15:00;102324.25;;;14.63;57.30
28027;BME280;15344;52.342;-1.290;2023-02-12T03:17:24;102324.66;;;14.53;58.23
28027;BME280;15344;52.342;-1.290;2023-02-12T03:19:48;102321.00;;;14.92;56.88
28027;BME280;15344;52.342;-1.290;2023-02-12T03:22:14;102320.15;;;14.55;59.05
28027;BME280;15344;52.342;-1.290;2023-02-12T03:24:41;102323.92;;;14.50;59.97
28027;BME280;15344;52.342;-1.290;2023-02-12T03:27:06;102319.47;;;14.50;59.52
28027;BME280;15344;52.342;-1.290;2023-02-12T03:29:26;102322.09;;;14.72;58.67
28027;BME280;15344;52.342;-1.290;2023-02-12T03:31:58;102323.70;;;14.50;59.87
28027;BME280;15344;52.342;-1.290;2023-02-12T03:34:22;102321.56;;;14.45;58.91
28027;BME280;15344;52.342;-1.290;2023-02-12T03:36:46;102322.87;;;14.56;57.20
28027;BME280;15344;52.342;-1.290;2023-02-12T03:39:11;102328.73;;;14.33;58.57
28027;BME280;15344;52.342;-1.290;2023-02-12T03:41:38;102332.07;;;14.14;60.69
28027;BME280;15344;52.342;-1.290;2023-02-12T03:44:04;102324.57;;;14.77;58.77
28027;BME280;15344;52.342;-1.290;2023-02-12T03:46:29;102330.30;;;14.56;59.35
28027;BME280;15344;52.342;-1.290;2023-02-12T03:48:56;102331.47;;;14.33;61.10
28027;BME280;15344;52.342;-1.290;2023-02-12T03:51:18;102325.53;;;14.45;60.60
28027;BME280;15344;52.342;-1.290;2023-02-12T03:53:39;102322.78;;;14.45;60.79
28027;BME280;15344;52.342;-1.290;2023-02-12T03:56:09;102323.64;;;14.31;58.85
28027;BME280;15344;52.342;-1.290;2023-02-12T03:58:32;102327.49;;;14.21;60.38
28027;BME280;15344;52.342;-1.290;2023-02-12T04:00:56;102324.46;;;14.28;61.30
28027;BME280;15344;52.342;-1.290;2023-02-12T04:03:21;102319.81;;;14.55;61.21
28027;BME280;15344;52.342;-1.290;2023-02-12T04:05:46;102324.60;;;14.15;62.08
28027;BME280;15344;52.342;-1.290;2023-02-12T04:08:12;102325.52;;;14.69;61.86
28027;BME280;15344;52.342;-1.290;2023-02-12T04:10:43;102327.65;;;14.35;61.63
28027;BME280;15344;52.342;-1.290;2023-02-12T04:13:10;102334.92;;;14.07;62.81
28027;BME280;15344;52.342;-1.290;2023-02-12T04:15:41;102332.50;;;14.45;62.25
28027;BME280;15344;52.342;-1.290;2023-02-12T04:17:57;102329.10;;;14.54;59.05
28027;BME280;15344;52.342;-1.290;2023-02-12T04:20:25;102326.39;;;14.72;58.66
28027;BME280;15344;52.342;-1.290;2023-02-12T04:22:52;102331.58;;;14.43;59.65
28027;BME280;15344;52.342;-1.290;2023-02-12T04:25:17;102340.62;;;14.33;60.62
28027;BME280;15344;52.342;-1.290;2023-02-12T04:27:37;102336.93;;;14.63;58.73
28027;BME280;15344;52.342;-1.290;2023-02-12T04:30:04;102340.67;;;14.27;60.04
28027;BME280;15344;52.342;-1.290;2023-02-12T04:32:30;102337.15;;;14.63;58.10
28027;BME280;15344;52.342;-1.290;2023-02-12T04:34:56;102344.96;;;14.24;59.31
28027;BME280;15344;52.342;-1.290;2023-02-12T04:37:18;102338.55;;;14.20;58.88
28027;BME280;15344;52.342;-1.290;2023-02-12T04:39:42;102337.08;;;14.04;59.89
28027;BME280;15344;52.342;-1.290;2023-02-12T04:42:06;102339.26;;;14.01;60.96
28027;BME280;15344;52.342;-1.290;2023-02-12T04:44:33;102342.03;;;14.19;60.59
28027;BME280;15344;52.342;-1.290;2023-02-12T04:46:56;102338.33;;;14.17;61.81
28027;BME280;15344;52.342;-1.290;2023-02-12T04:49:22;102338.66;;;13.89;63.14
28027;BME280;15344;52.342;-1.290;2023-02-12T04:51:49;102335.66;;;14.55;60.14
28027;BME280;15344;52.342;-1.290;2023-02-12T04:54:14;102339.59;;;14.24;60.93
28027;BME280;15344;52.342;-1.290;2023-02-12T04:56:38;102341.48;;;13.77;61.24
28027;BME280;15344;52.342;-1.290;2023-02-12T04:59:03;102337.43;;;14.47;59.05
28027;BME280;15344;52.342;-1.290;2023-02-12T05:01:29;102343.86;;;14.46;57.69
28027;BME280;15344;52.342;-1.290;2023-02-12T05:03:54;102344.16;;;14.05;60.29
28027;BME280;15344;52.342;-1.290;2023-02-12T05:06:19;102335.81;;;14.50;59.52
28027;BME280;15344;52.342;-1.290;2023-02-12T05:08:44;102339.00;;;14.10;61.02
28027;BME280;15344;52.342;-1.290;2023-02-12T05:11:10;102336.21;;;14.43;60.08
28027;BME280;15344;52.342;-1.290;2023-02-12T05:13:35;102336.62;;;14.35;60.46
28027;BME280;15344;52.342;-1.290;2023-02-12T05:16:03;102333.77;;;14.19;59.34
28027;BME280;15344;52.342;-1.290;2023-02-12T05:18:25;102334.43;;;14.06;60.24
28027;BME280;15344;52.342;-1.290;2023-02-12T05:20:55;102329.23;;;14.47;58.86
28027;BME280;15344;52.342;-1.290;2023-02-12T05:23:15;102329.51;;;14.24;59.98
28027;BME280;15344;52.342;-1.290;2023-02-12T05:25:40;102333.74;;;14.79;58.50
28027;BME280;15344;52.342;-1.290;2023-02-12T05:28:05;102339.19;;;14.84;57.22
28027;BME280;15344;52.342;-1.290;2023-02-12T05:30:30;102334.84;;;14.26;56.80
28027;BME280;15344;52.342;-1.290;2023-02-12T05:32:56;102336.73;;;14.09;58.80
28027;BME280;15344;52.342;-1.290;2023-02-12T05:35:21;102331.65;;;14.42;57.80
28027;BME280;15344;52.342;-1.290;2023-02-12T05:37:47;102332.64;;;14.03;57.99
28027;BME280;15344;52.342;-1.290;2023-02-12T05:40:13;102329.45;;;14.47;57.41
28027;BME280;15344;52.342;-1.290;2023-02-12T05:42:37;102331.42;;;13.95;59.70
28027;BME280;15344;52.342;-1.290;2023-02-12T05:45:02;102330.82;;;14.39;58.28
28027;BME280;15344;52.342;-1.290;2023-02-12T05:47:27;102330.30;;;14.43;58.67
28027;BME280;15344;52.342;-1.290;2023-02-12T05:49:53;102321.81;;;14.56;56.84
28027;BME280;15344;52.342;-1.290;2023-02-12T05:52:18;102324.54;;;14.37;58.04
28027;BME280;15344;52.342;-1.290;2023-02-12T05:54:43;102322.35;;;14.38;57.12
28027;BME280;15344;52.342;-1.290;2023-02-12T05:57:08;102319.84;;;13.83;57.93
28027;BME280;15344;52.342;-1.290;2023-02-12T05:59:33;102318.86;;;13.66;57.90
28027;BME280;15344;52.342;-1.290;2023-02-12T06:01:59;102324.59;;;13.51;57.63
28027;BME280;15344;52.342;-1.290;2023-02-12T06:04:26;102321.91;;;14.07;57.59
28027;BME280;15344;52.342;-1.290;2023-02-12T06:06:50;102326.57;;;13.60;57.32
28027;BME280;15344;52.342;-1.290;2023-02-12T06:09:15;102328.44;;;13.59;57.82
28027;BME280;15344;52.342;-1.290;2023-02-12T06:11:41;102328.81;;;13.52;58.75
28027;BME280;15344;52.342;-1.290;2023-02-12T06:14:08;102325.62;;;14.08;57.80
28027;BME280;15344;52.342;-1.290;2023-02-12T06:16:33;102325.58;;;13.94;56.70
28027;BME280;15344;52.342;-1.290;2023-02-12T06:18:57;102320.77;;;14.06;57.03
28027;BME280;15344;52.342;-1.290;2023-02-12T06:21:24;102314.10;;;14.17;57.38
28027;BME280;15344;52.342;-1.290;2023-02-12T06:23:49;102316.63;;;14.21;57.72
28027;BME280;15344;52.342;-1.290;2023-02-12T06:26:13;102317.52;;;14.40;56.52
28027;BME280;15344;52.342;-1.290;2023-02-12T06:28:38;102313.56;;;13.86;58.04
28027;BME280;15344;52.342;-1.290;2023-02-12T06:31:04;102310.06;;;13.64;58.73
28027;BME280;15344;52.342;-1.290;2023-02-12T06:33:29;102313.07;;;13.60;60.02
28027;BME280;15344;52.342;-1.290;2023-02-12T06:35:54;102309.90;;;14.08;58.18
28027;BME280;15344;52.342;-1.290;2023-02-12T06:38:20;102312.61;;;13.50;59.50
28027;BME280;15344;52.342;-1.290;2023-02-12T06:40:45;102310.69;;;14.18;56.85
28027;BME280;15344;52.342;-1.290;2023-02-12T06:43:11;102308.58;;;14.04;57.44
28027;BME280;15344;52.342;-1.290;2023-02-12T06:45:36;102306.24;;;14.00;58.47
28027;BME280;15344;52.342;-1.290;2023-02-12T06:48:01;102304.57;;;14.47;56.83
28027;BME280;15344;52.342;-1.290;2023-02-12T06:50:27;102307.84;;;13.85;58.85
28027;BME280;15344;52.342;-1.290;2023-02-12T06:52:53;102302.90;;;14.07;58.84
28027;BME280;15344;52.342;-1.290;2023-02-12T06:55:18;102306.45;;;14.08;59.30
28027;BME280;15344;52.342;-1.290;2023-02-12T06:57:44;102305.79;;;14.34;57.24
28027;BME280;15344;52.342;-1.290;2023-02-12T07:00:10;102307.78;;;14.18;56.36
28027;BME280;15344;52.342;-1.290;2023-02-12T07:02:34;102314.42;;;13.77;58.60
28027;BME280;15344;52.342;-1.290;2023-02-12T07:05:00;102314.96;;;13.47;60.95
28027;BME280;15344;52.342;-1.290;2023-02-12T07:07:25;102315.23;;;13.86;60.40
28027;BME280;15344;52.342;-1.290;2023-02-12T07:09:51;102315.72;;;14.27;57.90
28027;BME280;15344;52.342;-1.290;2023-02-12T07:12:16;102314.09;;;14.31;57.05
28027;BME280;15344;52.342;-1.290;2023-02-12T07:14:41;102319.48;;;14.17;59.51
28027;BME280;15344;52.342;-1.290;2023-02-12T07:17:06;102320.39;;;14.54;58.65
28027;BME280;15344;52.342;-1.290;2023-02-12T07:19:32;102325.35;;;13.95;58.43
28027;BME280;15344;52.342;-1.290;2023-02-12T07:21:57;102327.87;;;13.87;58.02
28027;BME280;15344;52.342;-1.290;2023-02-12T07:24:23;102332.89;;;13.55;60.39
28027;BME280;15344;52.342;-1.290;2023-02-12T07:26:48;102336.38;;;13.82;57.99
28027;BME280;15344;52.342;-1.290;2023-02-12T07:29:13;102337.22;;;13.56;58.84
28027;BME280;15344;52.342;-1.290;2023-02-12T07:31:39;102340.05;;;13.86;57.24
28027;BME280;15344;52.342;-1.290;2023-02-12T07:34:03;102340.24;;;13.67;58.68
28027;BME280;15344;52.342;-1.290;2023-02-12T07:36:31;102348.23;;;14.03;57.72
28027;BME280;15344;52.342;-1.290;2023-02-12T07:38:55;102350.63;;;14.06;56.84
28027;BME280;15344;52.342;-1.290;2023-02-12T07:41:23;102350.10;;;13.85;58.11
28027;BME280;15344;52.342;-1.290;2023-02-12T07:43:47;102347.88;;;14.12;58.92
28027;BME280;15344;52.342;-1.290;2023-02-12T07:46:12;102344.64;;;13.97;58.53
28027;BME280;15344;52.342;-1.290;2023-02-12T07:48:36;102344.82;;;14.05;57.49
28027;BME280;15344;52.342;-1.290;2023-02-12T07:51:03;102350.70;;;14.09;57.98
28027;BME280;15344;52.342;-1.290;2023-02-12T07:53:26;102352.40;;;13.96;58.86
28027;BME280;15344;52.342;-1.290;2023-02-12T07:55:52;102358.87;;;13.92;59.58
28027;BME280;15344;52.342;-1.290;2023-02-12T07:58:17;102358.78;;;13.83;58.57
28027;BME280;15344;52.342;-1.290;2023-02-12T08:00:43;102358.42;;;14.04;59.65
28027;BME280;15344;52.342;-1.290;2023-02-12T08:03:08;102360.52;;;14.31;59.16
28027;BME280;15344;52.342;-1.290;2023-02-12T08:05:34;102357.02;;;14.48;57.50
28027;BME280;15344;52.342;-1.290;2023-02-12T08:08:00;102361.70;;;14.55;58.57
28027;BME280;15344;52.342;-1.290;2023-02-12T08:10:25;102358.50;;;13.61;59.62
28027;BME280;15344;52.342;-1.290;2023-02-12T08:12:50;102356.09;;;14.05;56.81
28027;BME280;15344;52.342;-1.290;2023-02-12T08:15:16;102357.19;;;14.47;58.34
28027;BME280;15344;52.342;-1.290;2023-02-12T08:17:41;102360.80;;;14.42;56.38
28027;BME280;15344;52.342;-1.290;2023-02-12T08:20:06;102361.11;;;13.73;57.23
28027;BME280;15344;52.342;-1.290;2023-02-12T08:22:31;102360.17;;;14.28;56.94
28027;BME280;15344;52.342;-1.290;2023-02-12T08:24:57;102363.26;;;13.86;58.69
28027;BME280;15344;52.342;-1.290;2023-02-12T08:27:23;102366.45;;;13.32;58.94
28027;BME280;15344;52.342;-1.290;2023-02-12T08:29:48;102368.03;;;13.80;58.99
28027;BME280;15344;52.342;-1.290;2023-02-12T08:32:13;102368.15;;;13.76;58.69
28027;BME280;15344;52.342;-1.290;2023-02-12T08:34:38;102369.41;;;14.19;57.17
28027;BME280;15344;52.342;-1.290;2023-02-12T08:37:05;102364.72;;;14.51;56.07
28027;BME280;15344;52.342;-1.290;2023-02-12T08:39:30;102367.01;;;14.11;56.53
28027;BME280;15344;52.342;-1.290;2023-02-12T08:41:55;102362.93;;;14.09;56.28
28027;BME280;15344;52.342;-1.290;2023-02-12T08:44:20;102366.62;;;14.19;57.77
28027;BME280;15344;52.342;-1.290;2023-02-12T08:46:47;102368.61;;;14.41;55.78
28027;BME280;15344;52.342;-1.290;2023-02-12T08:49:13;102372.21;;;14.28;57.92
28027;BME280;15344;52.342;-1.290;2023-02-12T08:51:39;102376.15;;;13.95;56.67
28027;BME280;15344;52.342;-1.290;2023-02-12T08:54:04;102376.41;;;13.64;57.12
28027;BME280;15344;52.342;-1.290;2023-02-12T08:56:28;102376.15;;;14.23;57.13
28027;BME280;15344;52.342;-1.290;2023-02-12T08:58:52;102375.01;;;13.53;58.95
28027;BME280;15344;52.342;-1.290;2023-02-12T09:01:19;102373.57;;;14.20;58.40
28027;BME280;15344;52.342;-1.290;2023-02-12T09:03:43;102372.39;;;13.61;58.82
28027;BME280;15344;52.342;-1.290;2023-02-12T09:06:09;102376.08;;;13.86;58.19
28027;BME280;15344;52.342;-1.290;2023-02-12T09:08:34;102378.70;;;14.18;57.42
28027;BME280;15344;52.342;-1.290;2023-02-12T09:11:02;102378.33;;;13.36;57.54
28027;BME280;15344;52.342;-1.290;2023-02-12T09:13:25;102372.77;;;13.88;57.74
28027;BME280;15344;52.342;-1.290;2023-02-12T09:15:50;102368.62;;;14.19;56.71
28027;BME280;15344;52.342;-1.290;2023-02-12T09:18:16;102374.89;;;13.87;56.94
28027;BME280;15344;52.342;-1.290;2023-02-12T09:20:43;102371.30;;;13.99;56.51
28027;BME280;15344;52.342;-1.290;2023-02-12T09:23:07;102365.98;;;13.31;60.45
28027;BME280;15344;52.342;-1.290;2023-02-12T09:25:32;102369.20;;;13.76;57.87
28027;BME280;15344;52.342;-1.290;2023-02-12T09:27:57;102371.51;;;13.14;59.12
28027;BME280;15344;52.342;-1.290;2023-02-12T09:30:23;102367.29;;;13.73;58.97
28027;BME280;15344;52.342;-1.290;2023-02-12T09:32:48;102365.13;;;14.09;57.79
28027;BME280;15344;52.342;-1.290;2023-02-12T09:35:13;102364.74;;;13.34;59.38
28027;BME280;15344;52.342;-1.290;2023-02-12T09:37:38;102366.16;;;13.86;60.01
28027;BME280;15344;52.342;-1.290;2023-02-12T09:40:05;102366.35;;;13.84;58.51
28027;BME280;15344;52.342;-1.290;2023-02-12T09:42:42;102362.18;;;12.31;62.58
28027;BME280;15344;52.342;-1.290;2023-02-12T09:45:00;102362.50;;;13.74;59.66
28027;BME280;15344;52.342;-1.290;2023-02-12T09:47:26;102363.08;;;14.06;59.88
28027;BME280;15344;52.342;-1.290;2023-02-12T09:52:16;102360.05;;;13.61;60.71
28027;BME280;15344;52.342;-1.290;2023-02-12T09:54:38;102364.50;;;13.97;60.38
28027;BME280;15344;52.342;-1.290;2023-02-12T09:57:05;102365.32;;;13.72;60.42
28027;BME280;15344;52.342;-1.290;2023-02-12T09:59:31;102360.29;;;13.27;60.91
28027;BME280;15344;52.342;-1.290;2023-02-12T10:01:52;102360.31;;;14.05;60.54
28027;BME280;15344;52.342;-1.290;2023-02-12T10:04:25;102359.32;;;14.04;59.98
28027;BME280;15344;52.342;-1.290;2023-02-12T10:06:50;102353.92;;;13.29;61.62
28027;BME280;15344;52.342;-1.290;2023-02-12T10:09:21;102350.87;;;13.32;61.49
28027;BME280;15344;52.342;-1.290;2023-02-12T10:11:44;102350.76;;;13.56;61.30
28027;BME280;15344;52.342;-1.290;2023-02-12T10:14:09;102353.85;;;13.09;62.06
28027;BME280;15344;52.342;-1.290;2023-02-12T10:16:35;102356.39;;;13.60;60.92
28027;BME280;15344;52.342;-1.290;2023-02-12T10:18:59;102357.80;;;13.48;61.45
28027;BME280;15344;52.342;-1.290;2023-02-12T10:21:23;102365.93;;;14.27;58.92
28027;BME280;15344;52.342;-1.290;2023-02-12T10:23:52;102362.06;;;13.77;59.81
28027;BME280;15344;52.342;-1.290;2023-02-12T10:26:13;102365.33;;;13.52;59.87
28027;BME280;15344;52.342;-1.290;2023-02-12T10:28:34;102364.62;;;13.16;60.57
28027;BME280;15344;52.342;-1.290;2023-02-12T10:30:58;102364.72;;;13.70;61.17
28027;BME280;15344;52.342;-1.290;2023-02-12T10:33:26;102366.56;;;13.63;60.77
28027;BME280;15344;52.342;-1.290;2023-02-12T10:35:50;102366.17;;;14.03;58.92
28027;BME280;15344;52.342;-1.290;2023-02-12T10:38:16;102366.63;;;13.65;60.42
28027;BME280;15344;52.342;-1.290;2023-02-12T10:40:40;102362.14;;;14.02;60.44
28027;BME280;15344;52.342;-1.290;2023-02-12T10:43:03;102362.20;;;14.20;60.11
28027;BME280;15344;52.342;-1.290;2023-02-12T10:45:31;102365.31;;;13.60;59.93
28027;BME280;15344;52.342;-1.290;2023-02-12T10:48:03;102361.40;;;13.48;60.55
28027;BME280;15344;52.342;-1.290;2023-02-12T10:50:27;102360.81;;;13.74;60.18
28027;BME280;15344;52.342;-1.290;2023-02-12T10:52:48;102363.59;;;13.09;61.94
28027;BME280;15344;52.342;-1.290;2023-02-12T10:57:37;102363.32;;;13.59;60.86
28027;BME280;15344;52.342;-1.290;2023-02-12T11:02:29;102367.31;;;13.83;57.10
28027;BME280;15344;52.342;-1.290;2023-02-12T11:04:54;102364.18;;;13.53;57.32
28027;BME280;15344;52.342;-1.290;2023-02-12T11:07:19;102362.13;;;12.84;59.43
28027;BME280;15344;52.342;-1.290;2023-02-12T11:09:45;102363.18;;;13.33;59.01
28027;BME280;15344;52.342;-1.290;2023-02-12T11:12:16;102363.13;;;12.31;62.28
28027;BME280;15344;52.342;-1.290;2023-02-12T11:14:34;102364.42;;;12.42;59.80
28027;BME280;15344;52.342;-1.290;2023-02-12T11:17:00;102362.09;;;12.96;59.13
28027;BME280;15344;52.342;-1.290;2023-02-12T11:19:28;102362.22;;;12.82;57.58
28027;BME280;15344;52.342;-1.290;2023-02-12T11:21:51;102358.94;;;13.17;55.89
28027;BME280;15344;52.342;-1.290;2023-02-12T11:24:21;102355.24;;;13.31;55.94
28027;BME280;15344;52.342;-1.290;2023-02-12T11:26:41;102348.81;;;13.11;56.43
28027;BME280;15344;52.342;-1.290;2023-02-12T11:29:16;102350.87;;;12.16;57.36
28027;BME280;15344;52.342;-1.290;2023-02-12T11:31:33;102349.48;;;12.58;57.47
28027;BME280;15344;52.342;-1.290;2023-02-12T11:36:25;102354.16;;;12.62;57.60
28027;BME280;15344;52.342;-1.290;2023-02-12T11:38:50;102351.26;;;12.85;57.42
28027;BME280;15344;52.342;-1.290;2023-02-12T11:41:22;102348.26;;;12.98;57.02
28027;BME280;15344;52.342;-1.290;2023-02-12T11:43:39;102343.34;;;13.72;54.87
28027;BME280;15344;52.342;-1.290;2023-02-12T11:46:05;102348.90;;;13.99;54.49
28027;BME280;15344;52.342;-1.290;2023-02-12T11:48:31;102340.76;;;13.32;53.72
28027;BME280;15344;52.342;-1.290;2023-02-12T11:50:57;102339.13;;;13.19;55.79
28027;BME280;15344;52.342;-1.290;2023-02-12T11:53:23;102339.54;;;12.65;57.36
28027;BME280;15344;52.342;-1.290;2023-02-12T11:55:53;102341.36;;;12.33;57.53
28027;BME280;15344;52.342;-1.290;2023-02-12T11:58:15;102341.62;;;12.36;58.66
28027;BME280;15344;52.342;-1.290;2023-02-12T12:00:39;102338.62;;;11.93;63.30
28027;BME280;15344;52.342;-1.290;2023-02-12T12:03:09;102337.60;;;12.00;61.85
28027;BME280;15344;52.342;-1.290;2023-02-12T12:05:30;102334.21;;;12.99;58.01
28027;BME280;15344;52.342;-1.290;2023-02-12T12:07:57;102330.08;;;12.51;58.52
28027;BME280;15344;52.342;-1.290;2023-02-12T12:10:22;102329.92;;;12.11;59.99
28027;BME280;15344;52.342;-1.290;2023-02-12T12:12:48;102329.03;;;12.16;58.42
28027;BME280;15344;52.342;-1.290;2023-02-12T12:15:15;102325.64;;;12.73;57.28
28027;BME280;15344;52.342;-1.290;2023-02-12T12:17:40;102326.11;;;12.89;57.83
28027;BME280;15344;52.342;-1.290;2023-02-12T12:20:04;102321.71;;;12.94;57.19
28027;BME280;15344;52.342;-1.290;2023-02-12T12:22:39;102319.54;;;13.07;57.97
28027;BME280;15344;52.342;-1.290;2023-02-12T12:24:55;102317.18;;;13.25;58.59
28027;BME280;15344;52.342;-1.290;2023-02-12T12:27:21;102319.66;;;13.49;57.16
28027;BME280;15344;52.342;-1.290;2023-02-12T12:29:48;102313.04;;;12.79;55.70
28027;BME280;15344;52.342;-1.290;2023-02-12T12:32:09;102308.94;;;12.98;57.08
28027;BME280;15344;52.342;-1.290;2023-02-12T12:34:32;102307.26;;;11.81;59.74
28027;BME280;15344;52.342;-1.290;2023-02-12T12:37:10;102301.28;;;12.63;58.85
28027;BME280;15344;52.342;-1.290;2023-02-12T12:39:30;102296.42;;;12.81;57.03
28027;BME280;15344;52.342;-1.290;2023-02-12T12:42:06;102293.57;;;12.70;58.40